Flight Briefing for CPX431

Departure Arrival
Louis Armstrong New Orleans International Airport (KMSY)
Click to view FAA NOTAMS
Nashville International Airport (KBNA)
Click to view FAA NOTAMS
Departure Time Arrival Time
N/A N/A
Aircraft Distance
B757-200SF 410nm
Departure METAR Arrival METAR
KMSY 271053Z 13008KT 10SM FEW025 SCT250 25/22 A3000 RMK AO2 SLP163 T02500222 KBNA 271053Z 00000KT 10SM BKN250 21/17 A3005 RMK AO2 SLP169 T02110167 $
Suggested Route
LBY MEI IGB HRTUN CHSNE2


View recent IFR Routes data
Notes



Charts and Procedures

Charts for KMSY
No chart available
Charts for KBNA
No chart available

Windy.com Weather Map